Time;durP1;ratioP1;P1;durP2;ratioP2;P2;SDS_P1;SDS_P2;PMS_P1;PMS_P2;Temp;Humidity;BMP_temperature;BMP_pressure;BME280_temperature;BME280_humidity;BME280_pressure;Samples;Min_cycle;Max_cycle;Signal;HPM_P1;HPM_P2
2024/01/31 00:00:22;;;;;;;13.17;8.80;;;;;;;;;;5054248;28;20295;-75
2024/01/31 00:02:49;;;;;;;10.80;8.40;;;;;;;;;;5054433;28;20206;-76
2024/01/31 00:05:16;;;;;;;11.87;7.73;;;;;;;;;;5053684;28;20226;-76
2024/01/31 00:07:44;;;;;;;9.77;7.50;;;;;;;;;;5054242;28;20559;-76
2024/01/31 00:10:12;;;;;;;12.03;8.03;;;;;;;;;;5053439;28;20641;-75
2024/01/31 00:12:40;;;;;;;10.90;7.80;;;;;;;;;;5053839;28;20198;-75
2024/01/31 00:15:07;;;;;;;11.70;8.10;;;;;;;;;;5053895;28;20238;-75
2024/01/31 00:17:34;;;;;;;10.10;7.83;;;;;;;;;;5053878;28;20204;-77
2024/01/31 00:20:02;;;;;;;10.17;7.93;;;;;;;;;;5053199;28;20290;-75
2024/01/31 00:22:29;;;;;;;12.63;7.63;;;;;;;;;;5053219;28;20283;-75
2024/01/31 00:24:56;;;;;;;11.43;7.50;;;;;;;;;;5053106;28;20243;-76
2024/01/31 00:27:25;;;;;;;9.63;7.40;;;;;;;;;;5053417;28;20223;-76
2024/01/31 00:29:51;;;;;;;9.93;6.87;;;;;;;;;;5053250;28;20196;-76
2024/01/31 00:32:18;;;;;;;12.07;7.00;;;;;;;;;;5053566;28;20682;-76
2024/01/31 00:34:45;;;;;;;10.83;6.93;;;;;;;;;;5053263;28;20772;-77
2024/01/31 00:37:13;;;;;;;11.77;7.07;;;;;;;;;;5053616;28;20207;-75
2024/01/31 00:39:41;;;;;;;12.67;8.27;;;;;;;;;;5052864;28;20609;-76
2024/01/31 00:42:08;;;;;;;9.20;7.17;;;;;;;;;;5053227;28;20207;-76
2024/01/31 00:44:37;;;;;;;14.77;8.03;;;;;;;;;;5052965;28;20226;-76
2024/01/31 00:47:04;;;;;;;14.50;8.47;;;;;;;;;;5052255;28;20322;-76
2024/01/31 00:49:31;;;;;;;10.37;8.20;;;;;;;;;;5052971;28;20613;-75
2024/01/31 00:51:58;;;;;;;11.03;8.90;;;;;;;;;;5053418;28;20283;-76
2024/01/31 00:54:26;;;;;;;14.80;8.97;;;;;;;;;;5052705;28;20618;-76
2024/01/31 00:56:53;;;;;;;13.00;9.00;;;;;;;;;;5052995;28;20638;-76
2024/01/31 00:59:21;;;;;;;13.07;8.87;;;;;;;;;;5053125;28;20287;-77
2024/01/31 01:01:49;;;;;;;13.37;9.23;;;;;;;;;;5052799;28;20209;-75
2024/01/31 01:04:16;;;;;;;11.63;9.20;;;;;;;;;;5052695;28;20302;-76
2024/01/31 01:06:44;;;;;;;11.90;9.20;;;;;;;;;;5052309;28;20319;-75
2024/01/31 01:09:11;;;;;;;13.90;9.87;;;;;;;;;;5052198;28;20199;-75
2024/01/31 01:11:38;;;;;;;14.97;9.43;;;;;;;;;;5052598;28;20227;-76
2024/01/31 01:14:06;;;;;;;11.67;9.43;;;;;;;;;;5052866;28;20199;-76
2024/01/31 01:16:33;;;;;;;12.70;8.83;;;;;;;;;;5053019;28;20342;-75
2024/01/31 01:19:03;;;;;;;14.03;9.20;;;;;;;;;;5052484;28;20274;-75
2024/01/31 01:21:30;;;;;;;12.87;8.33;;;;;;;;;;5052399;28;20285;-76
2024/01/31 01:23:57;;;;;;;12.47;8.47;;;;;;;;;;5052097;28;20656;-76
2024/01/31 01:26:25;;;;;;;10.80;7.90;;;;;;;;;;5052467;28;20334;-76
2024/01/31 01:28:52;;;;;;;11.37;8.43;;;;;;;;;;5052377;28;20662;-76
2024/01/31 01:31:19;;;;;;;10.70;7.87;;;;;;;;;;5052505;28;20235;-75
2024/01/31 01:33:46;;;;;;;12.27;8.70;;;;;;;;;;5052362;28;20198;-76
2024/01/31 01:36:16;;;;;;;13.10;9.23;;;;;;;;;;5051663;28;20222;-76
2024/01/31 01:38:43;;;;;;;12.17;8.77;;;;;;;;;;5052474;28;20286;-75
2024/01/31 01:41:10;;;;;;;12.60;9.07;;;;;;;;;;5052284;28;20194;-75
2024/01/31 01:43:37;;;;;;;12.83;8.70;;;;;;;;;;5051944;28;20231;-76
2024/01/31 01:46:10;;;;;;;10.90;8.63;;;;;;;;;;5051842;28;20796;-76
2024/01/31 01:48:38;;;;;;;12.73;9.27;;;;;;;;;;5051924;28;20206;-76
2024/01/31 01:51:05;;;;;;;13.27;8.37;;;;;;;;;;5051303;28;20293;-75
2024/01/31 01:53:34;;;;;;;9.97;8.40;;;;;;;;;;5052506;28;20298;-76
2024/01/31 01:56:03;;;;;;;12.27;9.20;;;;;;;;;;5051877;28;20686;-76
2024/01/31 01:58:31;;;;;;;11.97;9.10;;;;;;;;;;5051506;28;20206;-76
2024/01/31 02:00:59;;;;;;;12.00;8.20;;;;;;;;;;5051851;28;20682;-76
2024/01/31 02:03:26;;;;;;;12.90;8.40;;;;;;;;;;5051905;28;20301;-76
2024/01/31 02:05:54;;;;;;;11.63;8.33;;;;;;;;;;5051120;28;20242;-75
2024/01/31 02:08:21;;;;;;;13.67;9.07;;;;;;;;;;5051818;28;20242;-76
2024/01/31 02:10:49;;;;;;;15.20;10.03;;;;;;;;;;5051489;28;20233;-76
2024/01/31 02:13:17;;;;;;;13.93;10.20;;;;;;;;;;5051553;28;20932;-75
2024/01/31 02:15:51;;;;;;;13.47;9.80;;;;;;;;;;5051458;28;20672;-76
2024/01/31 02:18:18;;;;;;;13.03;10.03;;;;;;;;;;5051306;28;20665;-76
2024/01/31 02:20:45;;;;;;;15.27;10.63;;;;;;;;;;5051054;28;20743;-76
2024/01/31 02:23:15;;;;;;;14.47;10.20;;;;;;;;;;5051649;28;20674;-76
2024/01/31 02:25:42;;;;;;;11.97;9.30;;;;;;;;;;5051122;28;20325;-74
2024/01/31 02:28:09;;;;;;;12.80;8.97;;;;;;;;;;5051210;28;20229;-76
2024/01/31 02:30:36;;;;;;;11.40;8.57;;;;;;;;;;5051362;28;20320;-76
2024/01/31 02:33:04;;;;;;;14.47;9.30;;;;;;;;;;5023033;28;20217;-74
2024/01/31 02:35:32;;;;;;;12.70;8.80;;;;;;;;;;5011324;28;20226;-75
2024/01/31 02:37:59;;;;;;;17.73;9.87;;;;;;;;;;5028043;28;20298;-75
2024/01/31 02:40:29;;;;;;;14.27;9.23;;;;;;;;;;5031674;28;20301;-77
2024/01/31 02:42:56;;;;;;;16.30;9.90;;;;;;;;;;5031388;28;20203;-76
2024/01/31 02:45:24;;;;;;;15.20;11.17;;;;;;;;;;5031215;28;20202;-76
2024/01/31 02:47:51;;;;;;;15.40;11.27;;;;;;;;;;5030916;28;20326;-76
2024/01/31 02:50:18;;;;;;;14.63;11.00;;;;;;;;;;5031068;28;20209;-76
2024/01/31 02:52:44;;;;;;;14.93;11.13;;;;;;;;;;5031279;28;20221;-76
2024/01/31 02:55:11;;;;;;;13.93;10.87;;;;;;;;;;5031766;28;20294;-77
2024/01/31 02:57:40;;;;;;;15.37;10.17;;;;;;;;;;5031356;28;20293;-76
2024/01/31 03:00:11;;;;;;;14.67;10.83;;;;;;;;;;5031184;28;20289;-74
2024/01/31 03:02:39;;;;;;;14.57;10.63;;;;;;;;;;5030778;28;20670;-77
2024/01/31 03:05:06;;;;;;;13.00;9.97;;;;;;;;;;5030753;28;20196;-76
2024/01/31 03:07:33;;;;;;;13.73;10.27;;;;;;;;;;5030753;28;20728;-75
2024/01/31 03:10:01;;;;;;;17.23;10.37;;;;;;;;;;5031984;28;20293;-76
2024/01/31 03:12:28;;;;;;;14.77;11.03;;;;;;;;;;5035173;28;20297;-75
2024/01/31 03:14:56;;;;;;;13.77;10.90;;;;;;;;;;5034853;28;20226;-76
2024/01/31 03:17:23;;;;;;;14.43;10.00;;;;;;;;;;5035012;28;20742;-77
2024/01/31 03:19:51;;;;;;;13.63;10.20;;;;;;;;;;5034971;28;20640;-76
2024/01/31 03:22:18;;;;;;;14.33;9.60;;;;;;;;;;5035109;28;20992;-76
2024/01/31 03:24:45;;;;;;;14.90;9.40;;;;;;;;;;5030903;28;20234;-77
2024/01/31 03:27:13;;;;;;;14.00;9.53;;;;;;;;;;5014951;28;20266;-75
2024/01/31 03:29:40;;;;;;;12.57;9.40;;;;;;;;;;5014934;28;20199;-76
2024/01/31 03:32:09;;;;;;;11.60;8.77;;;;;;;;;;5014681;28;20233;-77
2024/01/31 03:34:36;;;;;;;14.57;9.87;;;;;;;;;;5015202;28;20203;-76
2024/01/31 03:37:05;;;;;;;13.07;9.70;;;;;;;;;;5023316;28;20290;-76
2024/01/31 03:39:32;;;;;;;14.27;8.87;;;;;;;;;;5034455;28;20684;-76
2024/01/31 03:42:00;;;;;;;12.67;8.77;;;;;;;;;;5034529;28;20672;-76
2024/01/31 03:44:27;;;;;;;12.00;8.77;;;;;;;;;;5035059;28;20293;-76
2024/01/31 03:46:54;;;;;;;11.77;8.60;;;;;;;;;;5033957;28;20776;-76
2024/01/31 03:49:23;;;;;;;9.77;7.97;;;;;;;;;;5034431;28;20199;-77
2024/01/31 03:51:50;;;;;;;12.40;8.70;;;;;;;;;;5034470;28;20200;-76
2024/01/31 03:54:17;;;;;;;12.07;8.43;;;;;;;;;;5034599;28;20213;-76
2024/01/31 03:56:44;;;;;;;11.23;8.57;;;;;;;;;;5034479;28;20231;-77
2024/01/31 03:59:12;;;;;;;11.73;9.23;;;;;;;;;;5034297;28;20235;-76
2024/01/31 04:01:39;;;;;;;12.00;8.67;;;;;;;;;;5033942;28;20239;-76
2024/01/31 04:04:06;;;;;;;16.53;9.23;;;;;;;;;;5026225;28;20313;-76
2024/01/31 04:06:35;;;;;;;12.70;9.27;;;;;;;;;;5014270;28;20227;-76
2024/01/31 04:09:02;;;;;;;10.87;8.13;;;;;;;;;;5014302;28;20294;-76
2024/01/31 04:11:34;;;;;;;12.73;9.07;;;;;;;;;;5014157;28;20199;-77
2024/01/31 04:14:02;;;;;;;12.90;9.50;;;;;;;;;;5014115;28;20195;-76
2024/01/31 04:16:29;;;;;;;11.90;8.73;;;;;;;;;;5013859;28;20205;-76
2024/01/31 04:18:56;;;;;;;11.83;8.57;;;;;;;;;;5013977;28;20242;-76
2024/01/31 04:21:23;;;;;;;13.17;8.63;;;;;;;;;;5013773;28;20236;-75
2024/01/31 04:23:52;;;;;;;13.80;8.97;;;;;;;;;;5013839;28;20627;-76
2024/01/31 04:26:19;;;;;;;11.40;8.47;;;;;;;;;;5013612;28;20327;-75
2024/01/31 04:28:46;;;;;;;12.23;8.53;;;;;;;;;;5014308;28;20335;-75
2024/01/31 04:31:14;;;;;;;12.10;8.80;;;;;;;;;;5013482;28;20642;-75
2024/01/31 04:33:42;;;;;;;12.83;8.90;;;;;;;;;;5013680;28;20203;-76
2024/01/31 04:36:09;;;;;;;12.23;8.57;;;;;;;;;;5015318;28;20229;-77
2024/01/31 04:38:36;;;;;;;12.23;8.73;;;;;;;;;;5033622;28;20254;-76
2024/01/31 04:41:05;;;;;;;10.87;8.80;;;;;;;;;;5033471;28;20204;-76
2024/01/31 04:43:32;;;;;;;12.23;8.37;;;;;;;;;;5033434;28;20199;-76
2024/01/31 04:45:59;;;;;;;11.03;8.40;;;;;;;;;;5032918;28;20289;-75
2024/01/31 04:48:26;;;;;;;12.63;8.37;;;;;;;;;;5033332;28;20232;-76
2024/01/31 04:50:54;;;;;;;12.27;8.77;;;;;;;;;;5033363;28;20195;-76
2024/01/31 04:53:21;;;;;;;12.50;8.30;;;;;;;;;;5033748;28;20302;-76
2024/01/31 04:55:48;;;;;;;11.93;8.20;;;;;;;;;;5033348;28;20235;-75
2024/01/31 04:58:17;;;;;;;11.03;8.03;;;;;;;;;;5032921;28;20246;-75
2024/01/31 05:00:44;;;;;;;10.10;7.57;;;;;;;;;;5032804;28;20210;-77
2024/01/31 05:03:11;;;;;;;12.50;8.40;;;;;;;;;;5032748;28;20196;-75
2024/01/31 05:05:38;;;;;;;13.03;8.60;;;;;;;;;;5032880;28;20234;-75
2024/01/31 05:08:06;;;;;;;12.30;8.00;;;;;;;;;;5033119;28;20670;-75
2024/01/31 05:10:34;;;;;;;10.70;7.80;;;;;;;;;;5032786;28;20239;-75
2024/01/31 05:13:01;;;;;;;11.57;8.30;;;;;;;;;;5032571;28;20201;-76
2024/01/31 05:15:31;;;;;;;11.20;8.80;;;;;;;;;;5033052;28;20200;-77
2024/01/31 05:17:59;;;;;;;11.57;9.03;;;;;;;;;;5032368;28;20206;-76
2024/01/31 05:20:27;;;;;;;12.50;8.27;;;;;;;;;;5032708;28;20192;-76
2024/01/31 05:22:54;;;;;;;13.63;8.67;;;;;;;;;;5033015;28;20192;-76
2024/01/31 05:25:22;;;;;;;10.40;8.30;;;;;;;;;;5032601;28;20729;-76
2024/01/31 05:27:50;;;;;;;11.57;8.43;;;;;;;;;;5032144;28;20657;-76
2024/01/31 05:30:17;;;;;;;11.57;8.37;;;;;;;;;;5032574;28;20197;-76
2024/01/31 05:32:46;;;;;;;13.20;8.53;;;;;;;;;;5032355;28;20258;-76
2024/01/31 05:35:13;;;;;;;12.17;8.40;;;;;;;;;;5032292;28;20223;-75
2024/01/31 05:37:40;;;;;;;10.47;8.43;;;;;;;;;;5031989;28;20239;-77
2024/01/31 05:40:09;;;;;;;10.83;8.17;;;;;;;;;;5032208;28;20247;-75
2024/01/31 05:42:36;;;;;;;10.50;8.33;;;;;;;;;;5031934;28;20231;-76
2024/01/31 05:45:03;;;;;;;10.87;8.63;;;;;;;;;;5032146;28;20272;-76
2024/01/31 05:47:30;;;;;;;11.20;8.23;;;;;;;;;;5031880;28;20224;-76
2024/01/31 05:49:59;;;;;;;10.77;8.03;;;;;;;;;;5032301;28;20295;-76
2024/01/31 05:52:26;;;;;;;13.57;8.27;;;;;;;;;;5032077;28;20786;-76
2024/01/31 05:54:53;;;;;;;10.50;8.17;;;;;;;;;;5032202;28;20247;-75
2024/01/31 05:57:20;;;;;;;11.93;8.03;;;;;;;;;;5030626;28;20753;-76
2024/01/31 05:59:47;;;;;;;11.73;7.80;;;;;;;;;;5030516;28;20286;-77
2024/01/31 06:02:15;;;;;;;12.40;7.83;;;;;;;;;;5031777;28;20227;-76
2024/01/31 06:04:42;;;;;;;13.27;8.17;;;;;;;;;;5031615;28;20235;-76
2024/01/31 06:07:12;;;;;;;9.43;7.87;;;;;;;;;;5031337;28;20283;-76
2024/01/31 06:09:39;;;;;;;12.87;8.80;;;;;;;;;;5031346;28;20203;-76
2024/01/31 06:12:06;;;;;;;10.97;8.43;;;;;;;;;;5031172;28;20299;-76
2024/01/31 06:14:36;;;;;;;13.60;8.73;;;;;;;;;;5031811;28;20199;-75
2024/01/31 06:17:03;;;;;;;13.37;8.27;;;;;;;;;;5031907;28;20196;-76
2024/01/31 06:19:33;;;;;;;12.50;8.03;;;;;;;;;;5031382;28;20199;-76
2024/01/31 06:22:00;;;;;;;9.63;7.50;;;;;;;;;;5031183;28;20200;-76
2024/01/31 06:24:29;;;;;;;11.03;7.93;;;;;;;;;;5034268;28;20255;-76
2024/01/31 06:26:56;;;;;;;12.67;8.20;;;;;;;;;;5031037;28;20654;-76
2024/01/31 06:29:23;;;;;;;10.33;7.83;;;;;;;;;;5028123;28;20662;-76
2024/01/31 06:31:52;;;;;;;12.07;7.37;;;;;;;;;;5026155;28;20203;-76
2024/01/31 06:34:19;;;;;;;11.50;7.63;;;;;;;;;;5043868;28;20567;-76
2024/01/31 06:36:46;;;;;;;11.70;7.67;;;;;;;;;;5032007;28;20258;-77
2024/01/31 06:39:14;;;;;;;10.33;7.50;;;;;;;;;;5028990;28;20291;-77
2024/01/31 06:41:42;;;;;;;10.47;7.47;;;;;;;;;;5020168;28;20207;-77
2024/01/31 06:44:09;;;;;;;11.87;7.70;;;;;;;;;;5026964;28;20654;-76
2024/01/31 06:46:36;;;;;;;9.10;7.37;;;;;;;;;;5027457;28;20204;-76
2024/01/31 06:49:04;;;;;;;11.73;7.90;;;;;;;;;;5041538;28;20719;-75
2024/01/31 06:51:31;;;;;;;10.30;7.40;;;;;;;;;;5040541;28;20672;-75
2024/01/31 06:53:59;;;;;;;11.10;7.80;;;;;;;;;;5018579;28;20267;-76
2024/01/31 06:56:26;;;;;;;10.87;8.00;;;;;;;;;;5011021;28;20197;-76
2024/01/31 06:58:56;;;;;;;11.10;7.47;;;;;;;;;;5011626;28;20251;-76
2024/01/31 07:01:23;;;;;;;13.17;8.20;;;;;;;;;;5011640;28;20201;-76
2024/01/31 07:03:51;;;;;;;9.70;7.13;;;;;;;;;;5011329;28;20284;-76
2024/01/31 07:06:19;;;;;;;10.83;7.77;;;;;;;;;;5011565;28;20211;-76
2024/01/31 07:08:46;;;;;;;10.27;7.77;;;;;;;;;;5011387;28;20241;-76
2024/01/31 07:11:13;;;;;;;10.20;7.27;;;;;;;;;;5011296;28;20201;-77
2024/01/31 07:13:41;;;;;;;10.90;8.10;;;;;;;;;;5021149;28;20234;-77
2024/01/31 07:16:11;;;;;;;12.70;8.40;;;;;;;;;;5051002;28;20286;-76
2024/01/31 07:18:38;;;;;;;11.53;7.87;;;;;;;;;;5050752;28;20299;-76
2024/01/31 07:21:05;;;;;;;12.10;8.30;;;;;;;;;;5051001;28;20291;-77
2024/01/31 07:23:32;;;;;;;9.93;7.93;;;;;;;;;;5050915;28;20196;-76
2024/01/31 07:25:59;;;;;;;15.03;8.50;;;;;;;;;;5050274;28;20310;-76
2024/01/31 07:28:27;;;;;;;14.10;7.97;;;;;;;;;;5051165;28;20263;-76
2024/01/31 07:30:54;;;;;;;14.77;8.60;;;;;;;;;;5051098;28;20196;-74
2024/01/31 07:33:22;;;;;;;13.20;8.13;;;;;;;;;;5050604;28;20238;-77
2024/01/31 07:35:50;;;;;;;13.37;8.53;;;;;;;;;;5051312;28;20634;-76
2024/01/31 07:38:17;;;;;;;14.33;9.67;;;;;;;;;;5031794;28;20208;-77
2024/01/31 07:40:44;;;;;;;12.13;8.20;;;;;;;;;;5030570;28;20291;-76
2024/01/31 07:43:11;;;;;;;10.63;7.97;;;;;;;;;;5030780;28;20641;-76
2024/01/31 07:45:38;;;;;;;12.57;7.77;;;;;;;;;;5030487;28;20294;-77
2024/01/31 07:48:06;;;;;;;12.53;8.60;;;;;;;;;;5030746;28;20320;-76
2024/01/31 07:50:35;;;;;;;17.03;10.53;;;;;;;;;;5037372;28;20226;-77
2024/01/31 07:53:02;;;;;;;14.57;10.27;;;;;;;;;;5035687;28;20288;-76
2024/01/31 07:55:29;;;;;;;20.57;11.00;;;;;;;;;;5047991;28;20219;-76
2024/01/31 07:57:56;;;;;;;22.03;11.03;;;;;;;;;;5054029;28;20254;-77
2024/01/31 08:00:24;;;;;;;14.13;9.57;;;;;;;;;;5054185;28;20337;-77
2024/01/31 08:02:51;;;;;;;17.10;9.00;;;;;;;;;;5054045;28;20218;-77
2024/01/31 08:05:18;;;;;;;26.23;12.30;;;;;;;;;;5054412;28;20253;-78
2024/01/31 08:07:47;;;;;;;45.53;21.77;;;;;;;;;;5054117;28;20196;-77
2024/01/31 08:10:14;;;;;;;44.80;21.03;;;;;;;;;;5054275;28;20191;-78
2024/01/31 08:12:42;;;;;;;42.30;19.83;;;;;;;;;;5053742;28;20216;-77
2024/01/31 08:15:10;;;;;;;43.40;18.90;;;;;;;;;;5054312;28;20203;-78
2024/01/31 08:17:37;;;;;;;40.27;19.73;;;;;;;;;;5053784;28;20291;-77
2024/01/31 08:20:04;;;;;;;34.47;16.67;;;;;;;;;;5054074;28;20767;-78
2024/01/31 08:22:33;;;;;;;24.50;13.97;;;;;;;;;;5053507;28;20291;-79
2024/01/31 08:25:01;;;;;;;25.93;13.47;;;;;;;;;;5054131;28;20314;-78
2024/01/31 08:27:29;;;;;;;25.97;15.33;;;;;;;;;;5053895;28;20227;-78
2024/01/31 08:29:56;;;;;;;19.10;11.40;;;;;;;;;;5053839;28;20719;-79
2024/01/31 08:32:23;;;;;;;12.17;8.60;;;;;;;;;;5053802;28;20207;-78
2024/01/31 08:34:50;;;;;;;8.83;6.93;;;;;;;;;;5053726;28;20223;-79
2024/01/31 08:37:17;;;;;;;10.63;6.50;;;;;;;;;;5042516;28;20266;-79
2024/01/31 08:39:45;;;;;;;9.77;6.27;;;;;;;;;;5033961;28;20208;-78
2024/01/31 08:42:13;;;;;;;10.83;7.63;;;;;;;;;;5034383;28;20610;-78
2024/01/31 08:44:40;;;;;;;9.93;7.30;;;;;;;;;;5033263;28;20287;-79
2024/01/31 08:47:08;;;;;;;11.27;6.67;;;;;;;;;;5034226;28;20197;-78
2024/01/31 08:49:35;;;;;;;11.50;8.77;;;;;;;;;;5033682;28;20680;-78
2024/01/31 08:52:02;;;;;;;17.60;12.73;;;;;;;;;;5033187;28;20200;-77
2024/01/31 08:54:30;;;;;;;16.77;13.63;;;;;;;;;;5033638;28;20227;-78
2024/01/31 08:56:58;;;;;;;11.87;7.77;;;;;;;;;;5034475;28;20184;-79
2024/01/31 08:59:26;;;;;;;10.32;7.47;;;;;;;;;;5033436;28;20327;-79
2024/01/31 09:01:53;;;;;;;10.05;6.72;;;;;;;;;;5033437;28;20196;-78
2024/01/31 09:04:20;;;;;;;9.70;6.72;;;;;;;;;;5033276;28;20200;-78
2024/01/31 09:06:48;;;;;;;7.10;6.35;;;;;;;;;;5032939;28;20193;-78
2024/01/31 09:09:15;;;;;;;9.20;7.68;;;;;;;;;;5032369;28;20234;-78
2024/01/31 09:11:42;;;;;;;8.38;6.55;;;;;;;;;;5033663;28;20672;-78
2024/01/31 09:14:10;;;;;;;8.52;6.68;;;;;;;;;;5033122;28;20206;-79
2024/01/31 09:16:38;;;;;;;9.85;7.18;;;;;;;;;;5033221;28;20205;-77
2024/01/31 09:19:05;;;;;;;9.70;6.38;;;;;;;;;;5033113;28;20239;-80
2024/01/31 09:21:35;;;;;;;8.38;6.15;;;;;;;;;;5032941;28;20283;-80
2024/01/31 09:24:02;;;;;;;7.50;6.60;;;;;;;;;;5032867;28;20211;-76
2024/01/31 09:26:29;;;;;;;15.85;6.55;;;;;;;;;;5032732;28;20230;-79
2024/01/31 09:28:57;;;;;;;9.00;6.18;;;;;;;;;;5033287;28;20230;-79
2024/01/31 09:31:25;;;;;;;11.88;6.22;;;;;;;;;;5033248;28;20196;-79
2024/01/31 09:33:54;;;;;;;10.77;6.28;;;;;;;;;;5032689;28;20550;-79
2024/01/31 09:36:22;;;;;;;10.30;5.80;;;;;;;;;;5035136;28;20195;-79
2024/01/31 09:38:49;;;;;;;10.68;6.10;;;;;;;;;;5052736;28;20306;-79
2024/01/31 09:41:17;;;;;;;7.50;6.05;;;;;;;;;;5052470;28;20679;-77
2024/01/31 09:43:44;;;;;;;9.20;6.43;;;;;;;;;;5052586;28;20196;-79
2024/01/31 09:46:11;;;;;;;7.95;6.53;;;;;;;;;;5052629;28;20630;-79
2024/01/31 09:48:39;;;;;;;8.88;6.10;;;;;;;;;;5051847;28;20228;-77
2024/01/31 09:51:08;;;;;;;8.60;6.63;;;;;;;;;;5051782;28;20196;-79
2024/01/31 09:53:36;;;;;;;11.60;6.20;;;;;;;;;;5052636;28;20238;-77
2024/01/31 09:56:04;;;;;;;7.80;6.30;;;;;;;;;;5052385;28;20299;-79
2024/01/31 09:58:32;;;;;;;6.68;5.93;;;;;;;;;;5052200;28;20196;-78
2024/01/31 10:01:00;;;;;;;8.23;4.85;;;;;;;;;;5052308;28;20200;-79
2024/01/31 10:03:27;;;;;;;8.05;5.10;;;;;;;;;;5051828;28;20200;-78
2024/01/31 10:05:54;;;;;;;7.63;4.85;;;;;;;;;;5052071;28;20219;-79
2024/01/31 10:08:23;;;;;;;8.05;3.88;;;;;;;;;;5052048;28;20333;-78
2024/01/31 10:10:51;;;;;;;5.65;3.97;;;;;;;;;;5051988;28;20253;-79
2024/01/31 10:13:18;;;;;;;5.38;3.80;;;;;;;;;;5051903;28;20202;-78
2024/01/31 10:15:46;;;;;;;7.07;4.13;;;;;;;;;;5052018;28;20238;-79
2024/01/31 10:18:13;;;;;;;4.00;3.28;;;;;;;;;;5051727;28;20191;-78
2024/01/31 10:20:40;;;;;;;5.50;2.80;;;;;;;;;;5051542;28;20266;-79
2024/01/31 10:23:07;;;;;;;5.25;3.05;;;;;;;;;;5051484;28;20204;-79
2024/01/31 10:25:37;;;;;;;4.72;3.10;;;;;;;;;;5051684;28;20318;-79
2024/01/31 10:28:06;;;;;;;3.40;2.97;;;;;;;;;;5051847;28;20198;-79
2024/01/31 10:30:33;;;;;;;3.83;2.70;;;;;;;;;;5051514;28;20309;-78
2024/01/31 10:33:01;;;;;;;4.75;2.90;;;;;;;;;;5051195;28;20196;-79
2024/01/31 10:35:29;;;;;;;4.22;3.20;;;;;;;;;;5051493;28;20646;-79
2024/01/31 10:37:56;;;;;;;5.35;2.50;;;;;;;;;;5051279;28;20214;-80
2024/01/31 10:40:24;;;;;;;4.25;3.00;;;;;;;;;;5051307;28;20231;-79
2024/01/31 10:42:54;;;;;;;5.68;2.90;;;;;;;;;;5051674;28;20637;-78
2024/01/31 10:45:22;;;;;;;4.10;2.80;;;;;;;;;;5051409;28;20296;-78
2024/01/31 10:47:49;;;;;;;3.47;2.70;;;;;;;;;;5050717;28;20577;-79
2024/01/31 10:50:17;;;;;;;5.80;3.08;;;;;;;;;;5051456;28;20233;-79
2024/01/31 10:52:45;;;;;;;3.92;3.28;;;;;;;;;;5051301;28;20203;-79
2024/01/31 10:55:13;;;;;;;4.55;3.08;;;;;;;;;;5051321;28;20204;-79
2024/01/31 10:57:42;;;;;;;4.70;3.30;;;;;;;;;;5051478;28;20207;-79
2024/01/31 11:00:22;;;;;;;6.45;4.32;;;;;;;;;;5051569;28;20200;-79
2024/01/31 11:02:49;;;;;;;5.50;3.72;;;;;;;;;;5050999;28;20249;-79
2024/01/31 11:05:17;;;;;;;4.32;3.45;;;;;;;;;;5051206;28;20682;-79
2024/01/31 11:07:47;;;;;;;5.43;2.78;;;;;;;;;;5051220;28;20222;-79
2024/01/31 11:10:17;;;;;;;4.93;3.28;;;;;;;;;;5051250;28;20677;-78
2024/01/31 11:12:44;;;;;;;4.05;3.10;;;;;;;;;;5051528;28;20203;-79
2024/01/31 11:15:13;;;;;;;3.38;2.40;;;;;;;;;;5051174;28;20302;-78
2024/01/31 11:17:44;;;;;;;4.43;3.05;;;;;;;;;;5050472;28;20668;-79
2024/01/31 11:20:13;;;;;;;2.72;2.20;;;;;;;;;;5051136;28;20207;-79
2024/01/31 11:22:42;;;;;;;4.78;2.50;;;;;;;;;;5051034;28;20560;-76
2024/01/31 11:25:09;;;;;;;2.08;1.88;;;;;;;;;;5051171;28;20254;-79
2024/01/31 11:27:38;;;;;;;6.07;2.20;;;;;;;;;;5051241;28;20672;-79
2024/01/31 11:30:06;;;;;;;4.45;2.70;;;;;;;;;;5050858;28;20243;-78
2024/01/31 11:32:35;;;;;;;3.25;2.47;;;;;;;;;;5053930;28;20195;-80
2024/01/31 11:35:04;;;;;;;3.75;2.30;;;;;;;;;;5054842;28;20579;-79
2024/01/31 11:37:31;;;;;;;3.00;2.20;;;;;;;;;;5054705;28;20661;-79
2024/01/31 11:39:59;;;;;;;4.20;2.38;;;;;;;;;;5015094;28;20300;-79
2024/01/31 11:42:26;;;;;;;3.13;2.22;;;;;;;;;;5014955;28;20300;-79
2024/01/31 11:44:53;;;;;;;4.28;2.22;;;;;;;;;;5014834;28;20228;-80
2024/01/31 11:47:21;;;;;;;3.42;1.90;;;;;;;;;;5015416;28;20247;-79
2024/01/31 11:49:50;;;;;;;2.67;1.50;;;;;;;;;;5014800;28;20319;-78
2024/01/31 11:52:17;;;;;;;4.50;1.80;;;;;;;;;;5015124;28;20296;-79
2024/01/31 11:54:44;;;;;;;3.28;2.10;;;;;;;;;;5014501;28;20193;-79
2024/01/31 11:57:11;;;;;;;3.78;2.38;;;;;;;;;;5029382;28;20204;-78
2024/01/31 11:59:39;;;;;;;3.03;2.20;;;;;;;;;;5039177;28;20958;-78
2024/01/31 12:02:07;;;;;;;3.17;2.15;;;;;;;;;;5049507;28;20736;-79
2024/01/31 12:04:34;;;;;;;3.92;2.30;;;;;;;;;;5033222;28;20228;-79
2024/01/31 12:07:06;;;;;;;6.07;2.95;;;;;;;;;;5050911;28;20298;-78
2024/01/31 12:09:34;;;;;;;3.92;3.47;;;;;;;;;;5031388;28;20318;-79
2024/01/31 12:12:01;;;;;;;4.32;3.10;;;;;;;;;;5032372;28;20211;-79
2024/01/31 12:14:28;;;;;;;4.22;2.90;;;;;;;;;;5031362;28;20220;-80
2024/01/31 12:16:55;;;;;;;2.67;2.00;;;;;;;;;;5033177;28;20234;-79
2024/01/31 12:19:23;;;;;;;3.00;2.22;;;;;;;;;;5030168;28;20258;-79
2024/01/31 12:21:51;;;;;;;3.45;2.10;;;;;;;;;;5033312;28;20877;-79
2024/01/31 12:24:19;;;;;;;2.80;1.95;;;;;;;;;;5033030;28;20554;-79
2024/01/31 12:26:46;;;;;;;2.50;1.80;;;;;;;;;;5033950;28;20284;-80
2024/01/31 12:29:13;;;;;;;3.95;2.28;;;;;;;;;;5033546;28;20291;-79
2024/01/31 12:31:41;;;;;;;2.88;1.90;;;;;;;;;;5033705;28;20239;-79
2024/01/31 12:34:09;;;;;;;2.95;2.15;;;;;;;;;;5033063;28;20228;-78
2024/01/31 12:36:36;;;;;;;3.63;2.10;;;;;;;;;;5038106;28;20672;-79
2024/01/31 12:39:03;;;;;;;4.28;2.28;;;;;;;;;;5037833;28;20291;-78
2024/01/31 12:41:32;;;;;;;4.18;2.20;;;;;;;;;;5033305;28;20224;-79
2024/01/31 12:43:59;;;;;;;2.55;1.90;;;;;;;;;;5031713;28;20201;-79
2024/01/31 12:46:26;;;;;;;4.00;1.83;;;;;;;;;;5026890;28;20297;-79
2024/01/31 12:48:53;;;;;;;2.40;1.90;;;;;;;;;;5020320;28;20189;-78
2024/01/31 12:51:21;;;;;;;3.85;2.20;;;;;;;;;;5035699;28;20322;-78
2024/01/31 12:53:48;;;;;;;3.55;2.00;;;;;;;;;;5032050;28;20294;-78
2024/01/31 12:56:15;;;;;;;3.22;2.00;;;;;;;;;;5033658;28;20295;-78
2024/01/31 12:58:44;;;;;;;4.82;2.38;;;;;;;;;;5031224;28;20251;-78
2024/01/31 13:01:11;;;;;;;2.63;1.85;;;;;;;;;;5033211;28;20776;-78
2024/01/31 13:03:39;;;;;;;2.88;2.03;;;;;;;;;;5033055;28;20188;-77
2024/01/31 13:06:06;;;;;;;4.25;2.30;;;;;;;;;;5033213;28;20574;-78
2024/01/31 13:08:35;;;;;;;4.25;2.20;;;;;;;;;;5031786;28;20279;-78
2024/01/31 13:11:02;;;;;;;4.07;2.70;;;;;;;;;;5032688;28;20319;-78
2024/01/31 13:13:29;;;;;;;3.33;2.50;;;;;;;;;;5032619;28;20254;-79
2024/01/31 13:15:58;;;;;;;3.55;2.67;;;;;;;;;;5032157;28;20287;-78
2024/01/31 13:18:25;;;;;;;4.95;2.78;;;;;;;;;;5032990;28;20287;-77
2024/01/31 13:20:52;;;;;;;3.90;2.90;;;;;;;;;;5030044;28;20201;-77
2024/01/31 13:23:19;;;;;;;5.30;3.17;;;;;;;;;;5013351;28;20208;-78
2024/01/31 13:25:47;;;;;;;5.60;2.90;;;;;;;;;;5012605;28;20614;-78
2024/01/31 13:28:16;;;;;;;4.80;3.30;;;;;;;;;;5013247;28;20233;-77
2024/01/31 13:30:43;;;;;;;5.80;3.47;;;;;;;;;;5012706;28;20315;-78
2024/01/31 13:33:12;;;;;;;10.52;3.90;;;;;;;;;;5031813;28;20579;-78
2024/01/31 13:35:39;;;;;;;5.97;3.17;;;;;;;;;;5032595;28;20192;-78
2024/01/31 13:38:06;;;;;;;4.97;3.33;;;;;;;;;;5032427;28;20207;-76
2024/01/31 13:40:33;;;;;;;4.35;3.80;;;;;;;;;;5032525;28;20243;-78
2024/01/31 13:43:01;;;;;;;5.43;3.53;;;;;;;;;;5027562;28;20231;-78
2024/01/31 13:45:28;;;;;;;4.80;3.95;;;;;;;;;;5016960;28;20292;-78
2024/01/31 13:47:55;;;;;;;5.70;3.78;;;;;;;;;;5017463;28;20291;-78
2024/01/31 13:50:24;;;;;;;5.63;4.13;;;;;;;;;;5021239;28;20259;-78
2024/01/31 13:52:51;;;;;;;4.32;3.90;;;;;;;;;;5031626;28;20192;-77
2024/01/31 13:55:18;;;;;;;4.90;4.40;;;;;;;;;;5031593;28;20287;-78
2024/01/31 13:57:45;;;;;;;6.90;3.80;;;;;;;;;;5024920;28;20192;-77
2024/01/31 14:00:13;;;;;;;6.55;4.05;;;;;;;;;;5014515;28;20295;-78
2024/01/31 14:02:40;;;;;;;6.20;4.40;;;;;;;;;;5025514;28;20205;-77
2024/01/31 14:05:07;;;;;;;5.35;3.67;;;;;;;;;;5014866;28;20286;-78
2024/01/31 14:07:36;;;;;;;5.97;3.88;;;;;;;;;;5027846;28;20300;-77
2024/01/31 14:10:03;;;;;;;4.97;3.67;;;;;;;;;;5030321;28;20313;-78
2024/01/31 14:12:30;;;;;;;6.63;4.40;;;;;;;;;;5023728;28;20227;-78
2024/01/31 14:14:59;;;;;;;6.22;3.22;;;;;;;;;;5029736;28;20748;-78
2024/01/31 14:17:26;;;;;;;5.40;4.45;;;;;;;;;;5028164;28;20195;-78
2024/01/31 14:19:54;;;;;;;5.90;2.83;;;;;;;;;;5022736;28;20231;-78
2024/01/31 14:22:21;;;;;;;3.88;2.70;;;;;;;;;;5024038;28;20283;-76
2024/01/31 14:24:50;;;;;;;3.40;2.70;;;;;;;;;;5030237;28;20224;-76
2024/01/31 14:27:17;;;;;;;4.47;3.10;;;;;;;;;;5028903;28;20223;-76
2024/01/31 14:29:44;;;;;;;3.88;2.70;;;;;;;;;;5025668;28;20193;-78
2024/01/31 14:32:12;;;;;;;3.80;3.00;;;;;;;;;;5026039;28;20287;-77
2024/01/31 14:34:39;;;;;;;4.10;2.92;;;;;;;;;;5027337;28;20203;-77